sensor_id;sensor_type;location;lat;lon;timestamp;P1;durP1;ratioP1;P2;durP2;ratioP2
21886;SDS011;11108;49.988;8.182;2022-12-16T00:00:34;5.40;;;5.00;;
21886;SDS011;11108;49.988;8.182;2022-12-16T00:03:00;5.87;;;5.37;;
21886;SDS011;11108;49.988;8.182;2022-12-16T00:05:25;5.07;;;4.67;;
21886;SDS011;11108;49.988;8.182;2022-12-16T00:07:51;5.40;;;5.00;;
21886;SDS011;11108;49.988;8.182;2022-12-16T00:10:16;5.60;;;5.20;;
21886;SDS011;11108;49.988;8.182;2022-12-16T00:12:41;5.30;;;4.90;;
21886;SDS011;11108;49.988;8.182;2022-12-16T00:15:06;5.50;;;5.10;;
21886;SDS011;11108;49.988;8.182;2022-12-16T00:17:32;5.27;;;4.77;;
21886;SDS011;11108;49.988;8.182;2022-12-16T00:19:57;4.63;;;4.33;;
21886;SDS011;11108;49.988;8.182;2022-12-16T00:22:22;5.13;;;4.73;;
21886;SDS011;11108;49.988;8.182;2022-12-16T00:24:47;5.50;;;5.10;;
21886;SDS011;11108;49.988;8.182;2022-12-16T00:27:13;5.63;;;5.13;;
21886;SDS011;11108;49.988;8.182;2022-12-16T00:29:38;5.23;;;4.83;;
21886;SDS011;11108;49.988;8.182;2022-12-16T00:32:03;5.10;;;4.70;;
21886;SDS011;11108;49.988;8.182;2022-12-16T00:34:28;5.33;;;4.93;;
21886;SDS011;11108;49.988;8.182;2022-12-16T00:36:54;5.27;;;4.87;;
21886;SDS011;11108;49.988;8.182;2022-12-16T00:39:19;5.70;;;5.30;;
21886;SDS011;11108;49.988;8.182;2022-12-16T00:41:44;4.97;;;4.57;;
21886;SDS011;11108;49.988;8.182;2022-12-16T00:44:11;6.23;;;4.77;;
21886;SDS011;11108;49.988;8.182;2022-12-16T00:46:36;5.10;;;4.70;;
21886;SDS011;11108;49.988;8.182;2022-12-16T00:49:01;4.97;;;4.57;;
21886;SDS011;11108;49.988;8.182;2022-12-16T00:51:27;4.83;;;4.50;;
21886;SDS011;11108;49.988;8.182;2022-12-16T00:53:52;5.23;;;4.83;;
21886;SDS011;11108;49.988;8.182;2022-12-16T00:56:17;5.23;;;4.83;;
21886;SDS011;11108;49.988;8.182;2022-12-16T00:58:43;5.00;;;4.60;;
21886;SDS011;11108;49.988;8.182;2022-12-16T01:01:08;4.53;;;4.23;;
21886;SDS011;11108;49.988;8.182;2022-12-16T01:03:34;4.77;;;4.47;;
21886;SDS011;11108;49.988;8.182;2022-12-16T01:05:59;4.93;;;4.53;;
21886;SDS011;11108;49.988;8.182;2022-12-16T01:08:24;4.97;;;4.57;;
21886;SDS011;11108;49.988;8.182;2022-12-16T01:10:54;4.97;;;4.57;;
21886;SDS011;11108;49.988;8.182;2022-12-16T01:13:20;4.30;;;4.00;;
21886;SDS011;11108;49.988;8.182;2022-12-16T01:15:45;4.87;;;4.47;;
21886;SDS011;11108;49.988;8.182;2022-12-16T01:18:10;4.93;;;4.47;;
21886;SDS011;11108;49.988;8.182;2022-12-16T01:20:35;4.43;;;4.07;;
21886;SDS011;11108;49.988;8.182;2022-12-16T01:23:01;4.40;;;4.10;;
21886;SDS011;11108;49.988;8.182;2022-12-16T01:25:26;4.50;;;4.20;;
21886;SDS011;11108;49.988;8.182;2022-12-16T01:27:52;5.10;;;4.60;;
21886;SDS011;11108;49.988;8.182;2022-12-16T01:30:17;5.07;;;4.73;;
21886;SDS011;11108;49.988;8.182;2022-12-16T01:32:42;4.90;;;4.60;;
21886;SDS011;11108;49.988;8.182;2022-12-16T01:35:08;4.53;;;4.13;;
21886;SDS011;11108;49.988;8.182;2022-12-16T01:37:34;4.90;;;4.50;;
21886;SDS011;11108;49.988;8.182;2022-12-16T01:42:24;4.23;;;3.93;;
21886;SDS011;11108;49.988;8.182;2022-12-16T01:44:52;4.90;;;4.50;;
21886;SDS011;11108;49.988;8.182;2022-12-16T01:47:22;4.30;;;4.00;;
21886;SDS011;11108;49.988;8.182;2022-12-16T01:52:22;4.07;;;3.77;;
21886;SDS011;11108;49.988;8.182;2022-12-16T01:55:10;4.60;;;4.30;;
21886;SDS011;11108;49.988;8.182;2022-12-16T01:57:38;4.70;;;4.40;;
21886;SDS011;11108;49.988;8.182;2022-12-16T02:00:06;4.30;;;4.00;;
21886;SDS011;11108;49.988;8.182;2022-12-16T02:02:32;4.10;;;3.80;;
21886;SDS011;11108;49.988;8.182;2022-12-16T02:04:57;4.07;;;3.77;;
21886;SDS011;11108;49.988;8.182;2022-12-16T02:07:41;4.37;;;4.07;;
21886;SDS011;11108;49.988;8.182;2022-12-16T02:10:06;3.87;;;3.57;;
21886;SDS011;11108;49.988;8.182;2022-12-16T02:12:39;4.47;;;4.07;;
21886;SDS011;11108;49.988;8.182;2022-12-16T02:15:23;3.97;;;3.67;;
21886;SDS011;11108;49.988;8.182;2022-12-16T02:20:28;4.77;;;3.80;;
21886;SDS011;11108;49.988;8.182;2022-12-16T02:23:43;4.07;;;3.83;;
21886;SDS011;11108;49.988;8.182;2022-12-16T02:25:52;4.20;;;3.80;;
21886;SDS011;11108;49.988;8.182;2022-12-16T02:28:31;4.13;;;3.83;;
21886;SDS011;11108;49.988;8.182;2022-12-16T02:31:00;3.60;;;3.30;;
21886;SDS011;11108;49.988;8.182;2022-12-16T02:36:11;3.87;;;3.50;;
21886;SDS011;11108;49.988;8.182;2022-12-16T02:38:48;3.60;;;3.40;;
21886;SDS011;11108;49.988;8.182;2022-12-16T02:44:05;4.03;;;3.60;;
21886;SDS011;11108;49.988;8.182;2022-12-16T02:46:32;3.53;;;3.33;;
21886;SDS011;11108;49.988;8.182;2022-12-16T02:49:05;3.50;;;3.30;;
21886;SDS011;11108;49.988;8.182;2022-12-16T02:51:30;3.87;;;3.57;;
21886;SDS011;11108;49.988;8.182;2022-12-16T02:53:56;3.43;;;3.17;;
21886;SDS011;11108;49.988;8.182;2022-12-16T03:04:10;3.70;;;3.40;;
21886;SDS011;11108;49.988;8.182;2022-12-16T03:06:37;3.20;;;3.00;;
21886;SDS011;11108;49.988;8.182;2022-12-16T03:09:06;3.80;;;3.50;;
21886;SDS011;11108;49.988;8.182;2022-12-16T03:11:32;3.40;;;3.20;;
21886;SDS011;11108;49.988;8.182;2022-12-16T03:13:58;3.50;;;3.30;;
21886;SDS011;11108;49.988;8.182;2022-12-16T03:16:28;3.90;;;3.60;;
21886;SDS011;11108;49.988;8.182;2022-12-16T03:18:57;2.83;;;2.70;;
21886;SDS011;11108;49.988;8.182;2022-12-16T03:21:24;3.00;;;2.80;;
21886;SDS011;11108;49.988;8.182;2022-12-16T03:23:57;3.33;;;3.13;;
21886;SDS011;11108;49.988;8.182;2022-12-16T03:26:26;3.30;;;3.10;;
21886;SDS011;11108;49.988;8.182;2022-12-16T03:28:54;3.50;;;3.30;;
21886;SDS011;11108;49.988;8.182;2022-12-16T03:36:40;3.20;;;3.00;;
21886;SDS011;11108;49.988;8.182;2022-12-16T03:39:07;3.40;;;3.13;;
21886;SDS011;11108;49.988;8.182;2022-12-16T03:41:34;3.23;;;3.03;;
21886;SDS011;11108;49.988;8.182;2022-12-16T03:43:59;3.23;;;3.03;;
21886;SDS011;11108;49.988;8.182;2022-12-16T03:46:25;2.80;;;2.60;;
21886;SDS011;11108;49.988;8.182;2022-12-16T03:48:50;3.00;;;2.80;;
21886;SDS011;11108;49.988;8.182;2022-12-16T03:51:16;3.20;;;3.00;;
21886;SDS011;11108;49.988;8.182;2022-12-16T03:53:42;2.67;;;2.50;;
21886;SDS011;11108;49.988;8.182;2022-12-16T03:56:07;3.03;;;2.83;;
21886;SDS011;11108;49.988;8.182;2022-12-16T03:58:33;3.00;;;2.80;;
21886;SDS011;11108;49.988;8.182;2022-12-16T04:00:59;3.63;;;3.33;;
21886;SDS011;11108;49.988;8.182;2022-12-16T04:03:24;3.27;;;3.07;;
21886;SDS011;11108;49.988;8.182;2022-12-16T04:05:49;3.10;;;2.90;;
21886;SDS011;11108;49.988;8.182;2022-12-16T04:08:15;2.90;;;2.70;;
21886;SDS011;11108;49.988;8.182;2022-12-16T04:10:40;3.30;;;3.10;;
21886;SDS011;11108;49.988;8.182;2022-12-16T04:13:24;3.10;;;2.90;;
21886;SDS011;11108;49.988;8.182;2022-12-16T04:16:11;3.07;;;2.87;;
21886;SDS011;11108;49.988;8.182;2022-12-16T04:18:56;3.20;;;3.00;;
21886;SDS011;11108;49.988;8.182;2022-12-16T04:21:40;2.97;;;2.77;;
21886;SDS011;11108;49.988;8.182;2022-12-16T04:24:24;3.43;;;3.23;;
21886;SDS011;11108;49.988;8.182;2022-12-16T04:26:51;2.83;;;2.73;;
21886;SDS011;11108;49.988;8.182;2022-12-16T04:29:35;3.40;;;3.20;;
21886;SDS011;11108;49.988;8.182;2022-12-16T04:32:20;2.83;;;2.63;;
21886;SDS011;11108;49.988;8.182;2022-12-16T04:34:46;3.00;;;2.80;;
21886;SDS011;11108;49.988;8.182;2022-12-16T04:37:11;2.73;;;2.63;;
21886;SDS011;11108;49.988;8.182;2022-12-16T04:39:55;3.23;;;3.03;;
21886;SDS011;11108;49.988;8.182;2022-12-16T04:42:39;2.90;;;2.70;;
21886;SDS011;11108;49.988;8.182;2022-12-16T04:45:23;3.13;;;2.93;;
21886;SDS011;11108;49.988;8.182;2022-12-16T04:48:07;2.77;;;2.57;;
21886;SDS011;11108;49.988;8.182;2022-12-16T04:50:51;3.00;;;2.80;;
21886;SDS011;11108;49.988;8.182;2022-12-16T04:53:35;3.10;;;2.90;;
21886;SDS011;11108;49.988;8.182;2022-12-16T04:56:19;3.03;;;2.83;;
21886;SDS011;11108;49.988;8.182;2022-12-16T04:59:03;2.87;;;2.67;;
21886;SDS011;11108;49.988;8.182;2022-12-16T05:01:47;2.80;;;2.60;;
21886;SDS011;11108;49.988;8.182;2022-12-16T05:04:31;2.90;;;2.70;;
21886;SDS011;11108;49.988;8.182;2022-12-16T05:07:14;2.87;;;2.70;;
21886;SDS011;11108;49.988;8.182;2022-12-16T05:09:58;2.57;;;2.40;;
21886;SDS011;11108;49.988;8.182;2022-12-16T05:12:42;2.60;;;2.50;;
21886;SDS011;11108;49.988;8.182;2022-12-16T05:15:43;3.10;;;2.90;;
21886;SDS011;11108;49.988;8.182;2022-12-16T05:18:27;2.80;;;2.70;;
21886;SDS011;11108;49.988;8.182;2022-12-16T05:21:11;3.03;;;2.83;;
21886;SDS011;11108;49.988;8.182;2022-12-16T05:23:54;2.70;;;2.50;;
21886;SDS011;11108;49.988;8.182;2022-12-16T05:26:39;2.50;;;2.40;;
21886;SDS011;11108;49.988;8.182;2022-12-16T05:29:23;3.13;;;2.63;;
21886;SDS011;11108;49.988;8.182;2022-12-16T05:32:06;2.40;;;2.30;;
21886;SDS011;11108;49.988;8.182;2022-12-16T05:34:50;2.53;;;2.33;;
21886;SDS011;11108;49.988;8.182;2022-12-16T05:37:34;2.80;;;2.60;;
21886;SDS011;11108;49.988;8.182;2022-12-16T05:40:18;2.67;;;2.47;;
21886;SDS011;11108;49.988;8.182;2022-12-16T05:43:02;2.50;;;2.40;;
21886;SDS011;11108;49.988;8.182;2022-12-16T05:45:46;2.87;;;2.67;;
21886;SDS011;11108;49.988;8.182;2022-12-16T05:48:30;2.90;;;2.70;;
21886;SDS011;11108;49.988;8.182;2022-12-16T05:51:14;2.60;;;2.40;;
21886;SDS011;11108;49.988;8.182;2022-12-16T05:53:58;2.57;;;2.37;;
21886;SDS011;11108;49.988;8.182;2022-12-16T05:56:42;2.23;;;2.13;;
21886;SDS011;11108;49.988;8.182;2022-12-16T05:59:26;2.60;;;2.40;;
21886;SDS011;11108;49.988;8.182;2022-12-16T06:02:10;2.33;;;2.20;;
21886;SDS011;11108;49.988;8.182;2022-12-16T06:04:54;2.20;;;2.10;;
21886;SDS011;11108;49.988;8.182;2022-12-16T06:07:38;2.87;;;2.67;;
21886;SDS011;11108;49.988;8.182;2022-12-16T06:10:22;2.20;;;2.10;;
21886;SDS011;11108;49.988;8.182;2022-12-16T06:13:05;2.53;;;2.40;;
21886;SDS011;11108;49.988;8.182;2022-12-16T06:15:49;2.17;;;2.07;;
21886;SDS011;11108;49.988;8.182;2022-12-16T06:18:33;2.30;;;2.20;;
21886;SDS011;11108;49.988;8.182;2022-12-16T06:21:17;2.20;;;2.00;;
21886;SDS011;11108;49.988;8.182;2022-12-16T06:24:01;1.97;;;1.87;;
21886;SDS011;11108;49.988;8.182;2022-12-16T06:26:45;1.93;;;1.83;;
21886;SDS011;11108;49.988;8.182;2022-12-16T06:29:29;2.23;;;2.13;;
21886;SDS011;11108;49.988;8.182;2022-12-16T06:32:13;2.20;;;2.10;;
21886;SDS011;11108;49.988;8.182;2022-12-16T06:34:57;2.20;;;2.10;;
21886;SDS011;11108;49.988;8.182;2022-12-16T06:37:41;2.37;;;2.27;;
21886;SDS011;11108;49.988;8.182;2022-12-16T06:40:25;2.50;;;2.30;;
21886;SDS011;11108;49.988;8.182;2022-12-16T06:43:09;3.97;;;2.20;;
21886;SDS011;11108;49.988;8.182;2022-12-16T06:45:53;1.90;;;1.80;;
21886;SDS011;11108;49.988;8.182;2022-12-16T06:48:37;2.13;;;2.03;;
21886;SDS011;11108;49.988;8.182;2022-12-16T06:51:21;2.17;;;2.07;;
21886;SDS011;11108;49.988;8.182;2022-12-16T06:54:05;2.20;;;2.10;;
21886;SDS011;11108;49.988;8.182;2022-12-16T06:56:49;2.13;;;2.03;;
21886;SDS011;11108;49.988;8.182;2022-12-16T06:59:32;2.00;;;1.90;;
21886;SDS011;11108;49.988;8.182;2022-12-16T07:02:16;2.27;;;2.07;;
21886;SDS011;11108;49.988;8.182;2022-12-16T07:05:00;2.27;;;2.17;;
21886;SDS011;11108;49.988;8.182;2022-12-16T07:07:48;1.90;;;1.80;;
21886;SDS011;11108;49.988;8.182;2022-12-16T07:10:33;2.47;;;2.27;;
21886;SDS011;11108;49.988;8.182;2022-12-16T07:13:17;2.13;;;2.03;;
21886;SDS011;11108;49.988;8.182;2022-12-16T07:16:01;2.20;;;2.10;;
21886;SDS011;11108;49.988;8.182;2022-12-16T07:18:45;2.30;;;2.20;;
21886;SDS011;11108;49.988;8.182;2022-12-16T07:21:29;3.00;;;2.17;;
21886;SDS011;11108;49.988;8.182;2022-12-16T07:24:13;2.37;;;2.27;;
21886;SDS011;11108;49.988;8.182;2022-12-16T07:26:57;2.60;;;2.40;;
21886;SDS011;11108;49.988;8.182;2022-12-16T07:29:41;3.27;;;2.43;;
21886;SDS011;11108;49.988;8.182;2022-12-16T07:32:25;2.27;;;2.10;;
21886;SDS011;11108;49.988;8.182;2022-12-16T07:35:08;2.20;;;2.03;;
21886;SDS011;11108;49.988;8.182;2022-12-16T07:37:52;2.40;;;2.20;;
21886;SDS011;11108;49.988;8.182;2022-12-16T07:40:36;2.70;;;2.50;;
21886;SDS011;11108;49.988;8.182;2022-12-16T07:43:20;2.40;;;2.20;;
21886;SDS011;11108;49.988;8.182;2022-12-16T07:46:04;2.50;;;2.13;;
21886;SDS011;11108;49.988;8.182;2022-12-16T07:48:48;2.47;;;2.27;;
21886;SDS011;11108;49.988;8.182;2022-12-16T07:51:32;2.43;;;2.23;;
21886;SDS011;11108;49.988;8.182;2022-12-16T07:54:16;2.00;;;1.90;;
21886;SDS011;11108;49.988;8.182;2022-12-16T07:57:00;1.87;;;1.77;;
21886;SDS011;11108;49.988;8.182;2022-12-16T07:59:44;2.67;;;2.13;;
21886;SDS011;11108;49.988;8.182;2022-12-16T08:02:28;2.47;;;2.30;;
21886;SDS011;11108;49.988;8.182;2022-12-16T08:05:12;2.07;;;1.97;;
21886;SDS011;11108;49.988;8.182;2022-12-16T08:07:56;2.60;;;2.00;;
21886;SDS011;11108;49.988;8.182;2022-12-16T08:10:40;2.10;;;2.00;;
21886;SDS011;11108;49.988;8.182;2022-12-16T08:13:24;2.97;;;2.30;;
21886;SDS011;11108;49.988;8.182;2022-12-16T08:16:08;2.37;;;2.17;;
21886;SDS011;11108;49.988;8.182;2022-12-16T08:18:52;2.87;;;2.30;;
21886;SDS011;11108;49.988;8.182;2022-12-16T08:21:36;2.10;;;2.00;;
21886;SDS011;11108;49.988;8.182;2022-12-16T08:24:20;2.47;;;2.27;;
21886;SDS011;11108;49.988;8.182;2022-12-16T08:27:04;1.93;;;1.83;;
21886;SDS011;11108;49.988;8.182;2022-12-16T08:29:48;2.47;;;1.97;;
21886;SDS011;11108;49.988;8.182;2022-12-16T08:32:32;2.40;;;2.20;;
21886;SDS011;11108;49.988;8.182;2022-12-16T08:35:16;2.47;;;1.90;;
21886;SDS011;11108;49.988;8.182;2022-12-16T08:37:59;2.17;;;1.83;;
21886;SDS011;11108;49.988;8.182;2022-12-16T08:40:44;2.50;;;2.30;;
21886;SDS011;11108;49.988;8.182;2022-12-16T08:43:34;2.23;;;2.03;;
21886;SDS011;11108;49.988;8.182;2022-12-16T08:46:18;2.87;;;2.23;;
21886;SDS011;11108;49.988;8.182;2022-12-16T08:49:02;2.30;;;2.10;;
21886;SDS011;11108;49.988;8.182;2022-12-16T08:51:45;2.60;;;2.40;;
21886;SDS011;11108;49.988;8.182;2022-12-16T08:54:29;1.80;;;1.70;;
21886;SDS011;11108;49.988;8.182;2022-12-16T08:57:13;2.27;;;2.00;;
21886;SDS011;11108;49.988;8.182;2022-12-16T08:59:57;2.30;;;2.10;;
21886;SDS011;11108;49.988;8.182;2022-12-16T09:02:41;2.00;;;1.60;;
21886;SDS011;11108;49.988;8.182;2022-12-16T09:05:25;3.17;;;2.13;;
21886;SDS011;11108;49.988;8.182;2022-12-16T09:08:09;2.43;;;2.07;;
21886;SDS011;11108;49.988;8.182;2022-12-16T09:10:53;2.17;;;1.97;;
21886;SDS011;11108;49.988;8.182;2022-12-16T09:13:37;2.40;;;2.20;;
21886;SDS011;11108;49.988;8.182;2022-12-16T09:16:21;2.87;;;1.63;;
21886;SDS011;11108;49.988;8.182;2022-12-16T09:19:05;6.17;;;1.97;;
21886;SDS011;11108;49.988;8.182;2022-12-16T09:21:49;3.43;;;2.07;;
21886;SDS011;11108;49.988;8.182;2022-12-16T09:24:33;4.15;;;2.40;;
21886;SDS011;11108;49.988;8.182;2022-12-16T09:27:17;2.20;;;2.10;;
21886;SDS011;11108;49.988;8.182;2022-12-16T09:30:01;2.80;;;2.37;;
21886;SDS011;11108;49.988;8.182;2022-12-16T09:32:45;3.83;;;1.97;;
21886;SDS011;11108;49.988;8.182;2022-12-16T09:35:30;2.87;;;1.90;;
21886;SDS011;11108;49.988;8.182;2022-12-16T09:38:14;2.40;;;2.20;;
21886;SDS011;11108;49.988;8.182;2022-12-16T09:40:59;2.13;;;2.03;;
21886;SDS011;11108;49.988;8.182;2022-12-16T09:44:02;2.37;;;1.90;;
21886;SDS011;11108;49.988;8.182;2022-12-16T09:46:57;1.80;;;1.70;;
21886;SDS011;11108;49.988;8.182;2022-12-16T09:49:44;2.07;;;1.97;;
21886;SDS011;11108;49.988;8.182;2022-12-16T09:52:29;2.17;;;2.03;;
21886;SDS011;11108;49.988;8.182;2022-12-16T09:55:25;2.13;;;2.03;;
21886;SDS011;11108;49.988;8.182;2022-12-16T09:58:11;2.17;;;2.08;;
21886;SDS011;11108;49.988;8.182;2022-12-16T10:00:55;2.10;;;2.00;;
21886;SDS011;11108;49.988;8.182;2022-12-16T10:03:39;2.70;;;2.50;;
21886;SDS011;11108;49.988;8.182;2022-12-16T10:06:28;2.42;;;2.25;;
21886;SDS011;11108;49.988;8.182;2022-12-16T10:12:18;1.70;;;1.60;;
21886;SDS011;11108;49.988;8.182;2022-12-16T10:15:50;2.03;;;1.93;;
21886;SDS011;11108;49.988;8.182;2022-12-16T10:18:12;2.03;;;1.93;;
21886;SDS011;11108;49.988;8.182;2022-12-16T10:20:58;1.97;;;1.87;;
21886;SDS011;11108;49.988;8.182;2022-12-16T10:29:24;2.20;;;2.00;;
21886;SDS011;11108;49.988;8.182;2022-12-16T10:32:26;2.10;;;1.90;;
21886;SDS011;11108;49.988;8.182;2022-12-16T10:35:19;1.90;;;1.80;;
21886;SDS011;11108;49.988;8.182;2022-12-16T10:38:05;1.53;;;1.43;;
21886;SDS011;11108;49.988;8.182;2022-12-16T10:40:49;5.05;;;1.83;;
21886;SDS011;11108;49.988;8.182;2022-12-16T10:43:34;2.43;;;2.23;;
21886;SDS011;11108;49.988;8.182;2022-12-16T10:46:20;2.22;;;2.03;;
21886;SDS011;11108;49.988;8.182;2022-12-16T10:49:07;1.93;;;1.83;;
21886;SDS011;11108;49.988;8.182;2022-12-16T10:51:51;2.10;;;1.90;;
21886;SDS011;11108;49.988;8.182;2022-12-16T10:54:39;2.67;;;2.00;;
21886;SDS011;11108;49.988;8.182;2022-12-16T11:00:09;1.70;;;1.60;;
21886;SDS011;11108;49.988;8.182;2022-12-16T11:02:53;1.60;;;1.50;;
21886;SDS011;11108;49.988;8.182;2022-12-16T11:05:58;1.83;;;1.50;;
21886;SDS011;11108;49.988;8.182;2022-12-16T11:08:42;2.83;;;1.80;;
21886;SDS011;11108;49.988;8.182;2022-12-16T11:11:27;1.80;;;1.70;;
21886;SDS011;11108;49.988;8.182;2022-12-16T11:17:20;1.97;;;1.80;;
21886;SDS011;11108;49.988;8.182;2022-12-16T11:20:21;1.90;;;1.80;;
21886;SDS011;11108;49.988;8.182;2022-12-16T11:23:13;1.80;;;1.70;;
21886;SDS011;11108;49.988;8.182;2022-12-16T11:26:07;2.03;;;1.93;;
21886;SDS011;11108;49.988;8.182;2022-12-16T11:29:11;1.97;;;1.87;;
21886;SDS011;11108;49.988;8.182;2022-12-16T11:32:05;3.77;;;2.10;;
21886;SDS011;11108;49.988;8.182;2022-12-16T11:34:58;1.83;;;1.73;;
21886;SDS011;11108;49.988;8.182;2022-12-16T11:37:43;4.50;;;2.33;;
21886;SDS011;11108;49.988;8.182;2022-12-16T11:40:27;1.63;;;1.53;;
21886;SDS011;11108;49.988;8.182;2022-12-16T11:43:12;2.87;;;2.10;;
21886;SDS011;11108;49.988;8.182;2022-12-16T11:45:58;1.93;;;1.63;;
21886;SDS011;11108;49.988;8.182;2022-12-16T11:48:53;2.60;;;2.10;;
21886;SDS011;11108;49.988;8.182;2022-12-16T11:51:39;54.03;;;42.27;;
21886;SDS011;11108;49.988;8.182;2022-12-16T11:54:25;61.67;;;53.83;;
21886;SDS011;11108;49.988;8.182;2022-12-16T12:00:13;89.20;;;75.33;;
21886;SDS011;11108;49.988;8.182;2022-12-16T12:03:05;85.47;;;72.70;;
21886;SDS011;11108;49.988;8.182;2022-12-16T12:09:02;91.47;;;81.80;;
21886;SDS011;11108;49.988;8.182;2022-12-16T12:11:57;87.80;;;78.80;;
21886;SDS011;11108;49.988;8.182;2022-12-16T12:14:48;87.73;;;78.40;;
21886;SDS011;11108;49.988;8.182;2022-12-16T12:23:31;88.23;;;78.93;;
21886;SDS011;11108;49.988;8.182;2022-12-16T12:26:18;82.93;;;73.87;;
21886;SDS011;11108;49.988;8.182;2022-12-16T12:34:51;83.50;;;73.03;;
21886;SDS011;11108;49.988;8.182;2022-12-16T12:37:41;82.90;;;74.13;;
21886;SDS011;11108;49.988;8.182;2022-12-16T12:41:13;76.70;;;68.87;;
21886;SDS011;11108;49.988;8.182;2022-12-16T12:46:22;74.17;;;66.10;;
21886;SDS011;11108;49.988;8.182;2022-12-16T12:49:20;70.33;;;63.17;;
21886;SDS011;11108;49.988;8.182;2022-12-16T12:55:22;65.30;;;58.50;;
21886;SDS011;11108;49.988;8.182;2022-12-16T12:58:08;67.90;;;61.07;;
21886;SDS011;11108;49.988;8.182;2022-12-16T13:00:53;68.38;;;61.55;;
21886;SDS011;11108;49.988;8.182;2022-12-16T13:03:42;65.10;;;58.33;;
21886;SDS011;11108;49.988;8.182;2022-12-16T13:06:29;64.75;;;58.05;;
21886;SDS011;11108;49.988;8.182;2022-12-16T13:14:51;56.37;;;50.23;;
21886;SDS011;11108;49.988;8.182;2022-12-16T13:18:11;55.60;;;49.87;;
21886;SDS011;11108;49.988;8.182;2022-12-16T13:20:42;56.88;;;50.97;;
21886;SDS011;11108;49.988;8.182;2022-12-16T13:26:10;49.30;;;44.10;;
21886;SDS011;11108;49.988;8.182;2022-12-16T13:29:29;47.50;;;42.60;;
21886;SDS011;11108;49.988;8.182;2022-12-16T13:34:59;44.13;;;39.53;;
21886;SDS011;11108;49.988;8.182;2022-12-16T13:37:50;44.83;;;40.43;;
21886;SDS011;11108;49.988;8.182;2022-12-16T13:46:19;40.90;;;36.70;;
21886;SDS011;11108;49.988;8.182;2022-12-16T13:52:20;37.47;;;33.57;;
21886;SDS011;11108;49.988;8.182;2022-12-16T13:55:16;37.27;;;33.33;;
21886;SDS011;11108;49.988;8.182;2022-12-16T13:58:03;34.20;;;30.60;;
21886;SDS011;11108;49.988;8.182;2022-12-16T14:00:53;35.53;;;30.77;;
21886;SDS011;11108;49.988;8.182;2022-12-16T14:06:21;32.40;;;29.03;;
21886;SDS011;11108;49.988;8.182;2022-12-16T14:09:12;31.73;;;28.47;;
21886;SDS011;11108;49.988;8.182;2022-12-16T14:12:03;29.80;;;26.80;;
21886;SDS011;11108;49.988;8.182;2022-12-16T14:14:50;28.77;;;25.77;;
21886;SDS011;11108;49.988;8.182;2022-12-16T14:17:39;28.33;;;25.47;;
21886;SDS011;11108;49.988;8.182;2022-12-16T14:20:46;29.67;;;26.63;;
21886;SDS011;11108;49.988;8.182;2022-12-16T14:23:43;27.27;;;24.57;;
21886;SDS011;11108;49.988;8.182;2022-12-16T14:26:29;27.57;;;24.90;;
21886;SDS011;11108;49.988;8.182;2022-12-16T14:29:19;25.17;;;22.57;;
21886;SDS011;11108;49.988;8.182;2022-12-16T14:32:27;25.93;;;23.20;;
21886;SDS011;11108;49.988;8.182;2022-12-16T14:35:10;24.00;;;21.57;;
21886;SDS011;11108;49.988;8.182;2022-12-16T14:37:55;24.03;;;21.47;;
21886;SDS011;11108;49.988;8.182;2022-12-16T14:40:39;22.77;;;20.60;;
21886;SDS011;11108;49.988;8.182;2022-12-16T14:43:23;22.93;;;20.43;;
21886;SDS011;11108;49.988;8.182;2022-12-16T14:46:23;22.63;;;20.33;;
21886;SDS011;11108;49.988;8.182;2022-12-16T14:49:22;20.43;;;18.23;;
21886;SDS011;11108;49.988;8.182;2022-12-16T14:52:14;20.87;;;18.67;;
21886;SDS011;11108;49.988;8.182;2022-12-16T14:54:58;21.92;;;19.73;;
21886;SDS011;11108;49.988;8.182;2022-12-16T14:57:42;22.40;;;17.57;;
21886;SDS011;11108;49.988;8.182;2022-12-16T15:00:26;18.17;;;16.33;;
21886;SDS011;11108;49.988;8.182;2022-12-16T15:06:02;18.53;;;16.53;;
21886;SDS011;11108;49.988;8.182;2022-12-16T15:08:51;19.03;;;15.80;;
21886;SDS011;11108;49.988;8.182;2022-12-16T15:11:35;16.80;;;15.03;;
21886;SDS011;11108;49.988;8.182;2022-12-16T15:14:22;18.07;;;15.70;;
21886;SDS011;11108;49.988;8.182;2022-12-16T15:17:14;15.27;;;13.10;;
21886;SDS011;11108;49.988;8.182;2022-12-16T15:19:59;16.07;;;14.47;;
21886;SDS011;11108;49.988;8.182;2022-12-16T15:22:44;16.50;;;13.73;;
21886;SDS011;11108;49.988;8.182;2022-12-16T15:25:30;15.23;;;13.57;;
21886;SDS011;11108;49.988;8.182;2022-12-16T15:28:21;15.13;;;13.53;;
21886;SDS011;11108;49.988;8.182;2022-12-16T15:31:11;14.83;;;13.20;;
21886;SDS011;11108;49.988;8.182;2022-12-16T15:36:58;14.87;;;12.87;;
21886;SDS011;11108;49.988;8.182;2022-12-16T15:39:42;14.47;;;11.57;;
21886;SDS011;11108;49.988;8.182;2022-12-16T15:42:27;11.80;;;10.63;;
21886;SDS011;11108;49.988;8.182;2022-12-16T15:45:19;12.20;;;10.97;;
21886;SDS011;11108;49.988;8.182;2022-12-16T15:48:28;12.03;;;10.80;;
21886;SDS011;11108;49.988;8.182;2022-12-16T15:51:19;12.97;;;10.17;;
21886;SDS011;11108;49.988;8.182;2022-12-16T15:54:03;11.77;;;9.60;;
21886;SDS011;11108;49.988;8.182;2022-12-16T15:56:47;10.90;;;9.63;;
21886;SDS011;11108;49.988;8.182;2022-12-16T15:59:33;10.70;;;9.17;;
21886;SDS011;11108;49.988;8.182;2022-12-16T16:02:18;10.30;;;9.20;;
21886;SDS011;11108;49.988;8.182;2022-12-16T16:05:12;9.77;;;8.73;;
21886;SDS011;11108;49.988;8.182;2022-12-16T16:07:56;9.77;;;8.77;;
21886;SDS011;11108;49.988;8.182;2022-12-16T16:10:41;9.17;;;8.07;;
21886;SDS011;11108;49.988;8.182;2022-12-16T16:13:25;9.43;;;8.40;;
21886;SDS011;11108;49.988;8.182;2022-12-16T16:16:09;8.80;;;7.33;;
21886;SDS011;11108;49.988;8.182;2022-12-16T16:18:53;9.63;;;7.80;;
21886;SDS011;11108;49.988;8.182;2022-12-16T16:21:37;8.70;;;7.50;;
21886;SDS011;11108;49.988;8.182;2022-12-16T16:24:21;8.57;;;7.17;;
21886;SDS011;11108;49.988;8.182;2022-12-16T16:27:08;8.20;;;7.40;;
21886;SDS011;11108;49.988;8.182;2022-12-16T16:29:53;7.50;;;6.77;;
21886;SDS011;11108;49.988;8.182;2022-12-16T16:32:37;8.77;;;7.17;;
21886;SDS011;11108;49.988;8.182;2022-12-16T16:35:21;8.03;;;7.23;;
21886;SDS011;11108;49.988;8.182;2022-12-16T16:38:05;9.10;;;6.70;;
21886;SDS011;11108;49.988;8.182;2022-12-16T16:40:49;8.10;;;6.43;;
21886;SDS011;11108;49.988;8.182;2022-12-16T16:43:33;6.97;;;6.27;;
21886;SDS011;11108;49.988;8.182;2022-12-16T16:49:00;8.17;;;6.03;;
21886;SDS011;11108;49.988;8.182;2022-12-16T16:51:44;6.67;;;5.97;;
21886;SDS011;11108;49.988;8.182;2022-12-16T16:54:28;7.50;;;5.77;;
21886;SDS011;11108;49.988;8.182;2022-12-16T16:57:12;5.90;;;5.40;;
21886;SDS011;11108;49.988;8.182;2022-12-16T16:59:56;10.00;;;5.10;;
21886;SDS011;11108;49.988;8.182;2022-12-16T17:02:40;7.97;;;5.43;;
21886;SDS011;11108;49.988;8.182;2022-12-16T17:05:24;7.67;;;5.63;;
21886;SDS011;11108;49.988;8.182;2022-12-16T17:08:08;7.27;;;4.93;;
21886;SDS011;11108;49.988;8.182;2022-12-16T17:10:52;269.50;;;18.63;;
21886;SDS011;11108;49.988;8.182;2022-12-16T17:13:36;5.97;;;5.35;;
21886;SDS011;11108;49.988;8.182;2022-12-16T17:16:20;5.57;;;4.43;;
21886;SDS011;11108;49.988;8.182;2022-12-16T17:19:04;5.00;;;4.50;;
21886;SDS011;11108;49.988;8.182;2022-12-16T17:21:48;5.60;;;4.23;;
21886;SDS011;11108;49.988;8.182;2022-12-16T17:24:32;5.63;;;4.77;;
21886;SDS011;11108;49.988;8.182;2022-12-16T17:27:17;4.97;;;4.00;;
21886;SDS011;11108;49.988;8.182;2022-12-16T17:30:02;6.80;;;4.47;;
21886;SDS011;11108;49.988;8.182;2022-12-16T17:32:45;4.93;;;4.27;;
21886;SDS011;11108;49.988;8.182;2022-12-16T17:35:29;5.20;;;4.20;;
21886;SDS011;11108;49.988;8.182;2022-12-16T17:38:13;4.83;;;4.30;;
21886;SDS011;11108;49.988;8.182;2022-12-16T17:40:57;4.50;;;4.10;;
21886;SDS011;11108;49.988;8.182;2022-12-16T17:43:41;4.60;;;4.20;;